sensor_id;sensor_type;location;lat;lon;timestamp;pressure;altitude;pressure_sealevel;temperature;humidity
11692;BME280;33659;42.672;23.354;2022-09-16T00:01:35;93890.03;;;24.10;45.99
11692;BME280;33659;42.672;23.354;2022-09-16T00:04:01;93901.22;;;24.04;46.28
11692;BME280;33659;42.672;23.354;2022-09-16T00:06:29;93900.56;;;24.00;46.15
11692;BME280;33659;42.672;23.354;2022-09-16T00:08:58;93904.41;;;23.99;46.19
11692;BME280;33659;42.672;23.354;2022-09-16T00:11:26;93889.91;;;24.00;46.35
11692;BME280;33659;42.672;23.354;2022-09-16T00:13:53;93892.13;;;24.02;46.63
11692;BME280;33659;42.672;23.354;2022-09-16T00:16:22;93886.63;;;24.09;46.77
11692;BME280;33659;42.672;23.354;2022-09-16T00:18:52;93898.66;;;24.14;46.03
11692;BME280;33659;42.672;23.354;2022-09-16T00:21:20;93894.81;;;24.15;46.24
11692;BME280;33659;42.672;23.354;2022-09-16T00:23:47;93894.41;;;24.16;46.20
11692;BME280;33659;42.672;23.354;2022-09-16T00:26:15;93894.81;;;24.15;46.27
11692;BME280;33659;42.672;23.354;2022-09-16T00:28:42;93884.91;;;24.02;46.27
11692;BME280;33659;42.672;23.354;2022-09-16T00:31:09;93888.63;;;24.05;46.33
11692;BME280;33659;42.672;23.354;2022-09-16T00:33:36;93892.78;;;24.06;46.36
11692;BME280;33659;42.672;23.354;2022-09-16T00:36:04;93886.72;;;24.05;46.55
11692;BME280;33659;42.672;23.354;2022-09-16T00:38:31;93901.53;;;24.07;46.18
11692;BME280;33659;42.672;23.354;2022-09-16T00:40:58;93888.13;;;24.10;46.10
11692;BME280;33659;42.672;23.354;2022-09-16T00:43:26;93899.41;;;24.14;46.04
11692;BME280;33659;42.672;23.354;2022-09-16T00:45:56;93902.00;;;24.18;45.98
11692;BME280;33659;42.672;23.354;2022-09-16T00:48:27;93895.16;;;24.17;46.29
11692;BME280;33659;42.672;23.354;2022-09-16T00:50:58;93902.75;;;24.18;46.36
11692;BME280;33659;42.672;23.354;2022-09-16T00:53:27;93884.72;;;24.22;46.04
11692;BME280;33659;42.672;23.354;2022-09-16T00:55:58;93907.63;;;24.20;46.24
11692;BME280;33659;42.672;23.354;2022-09-16T00:58:32;93908.38;;;24.20;46.26
11692;BME280;33659;42.672;23.354;2022-09-16T01:01:03;93896.94;;;24.07;46.21
11692;BME280;33659;42.672;23.354;2022-09-16T01:03:32;93909.03;;;24.12;46.35
11692;BME280;33659;42.672;23.354;2022-09-16T01:06:01;93907.97;;;24.09;46.61
11692;BME280;33659;42.672;23.354;2022-09-16T01:08:28;93904.81;;;23.85;47.02
11692;BME280;33659;42.672;23.354;2022-09-16T01:10:55;93892.28;;;23.69;47.33
11692;BME280;33659;42.672;23.354;2022-09-16T01:13:22;93902.00;;;23.47;47.63
11692;BME280;33659;42.672;23.354;2022-09-16T01:15:58;93897.78;;;23.33;47.94
11692;BME280;33659;42.672;23.354;2022-09-16T01:18:29;93908.97;;;23.28;49.00
11692;BME280;33659;42.672;23.354;2022-09-16T01:21:04;93916.34;;;23.37;48.93
11692;BME280;33659;42.672;23.354;2022-09-16T01:24:13;93911.91;;;23.46;48.79
11692;BME280;33659;42.672;23.354;2022-09-16T01:30:10;93924.13;;;23.60;48.59
11692;BME280;33659;42.672;23.354;2022-09-16T01:32:48;93910.47;;;23.58;48.57
11692;BME280;33659;42.672;23.354;2022-09-16T01:35:22;93906.63;;;23.59;48.38
11692;BME280;33659;42.672;23.354;2022-09-16T01:38:00;93893.69;;;23.74;47.91
11692;BME280;33659;42.672;23.354;2022-09-16T01:40:33;93896.59;;;23.80;47.78
11692;BME280;33659;42.672;23.354;2022-09-16T01:43:06;93894.97;;;23.82;47.71
11692;BME280;33659;42.672;23.354;2022-09-16T01:45:40;93878.66;;;23.80;47.83
11692;BME280;33659;42.672;23.354;2022-09-16T01:48:12;93899.22;;;23.67;48.28
11692;BME280;33659;42.672;23.354;2022-09-16T01:50:45;93903.66;;;23.57;48.28
11692;BME280;33659;42.672;23.354;2022-09-16T01:53:17;93897.94;;;23.42;48.74
11692;BME280;33659;42.672;23.354;2022-09-16T01:55:50;93902.03;;;23.31;49.05
11692;BME280;33659;42.672;23.354;2022-09-16T01:58:22;93883.25;;;23.21;48.95
11692;BME280;33659;42.672;23.354;2022-09-16T02:00:55;93908.88;;;23.32;49.49
11692;BME280;33659;42.672;23.354;2022-09-16T02:03:29;93896.94;;;23.36;49.55
11692;BME280;33659;42.672;23.354;2022-09-16T02:05:59;93881.38;;;23.35;49.42
11692;BME280;33659;42.672;23.354;2022-09-16T02:08:31;93875.53;;;23.40;49.27
11692;BME280;33659;42.672;23.354;2022-09-16T02:11:01;93888.69;;;23.47;48.54
11692;BME280;33659;42.672;23.354;2022-09-16T02:13:33;93879.50;;;23.48;48.54
11692;BME280;33659;42.672;23.354;2022-09-16T02:16:05;93892.75;;;23.51;48.62
11692;BME280;33659;42.672;23.354;2022-09-16T02:18:40;93870.06;;;23.31;48.69
11692;BME280;33659;42.672;23.354;2022-09-16T02:21:10;93882.69;;;23.43;48.71
11692;BME280;33659;42.672;23.354;2022-09-16T02:23:41;93876.09;;;23.47;48.85
11692;BME280;33659;42.672;23.354;2022-09-16T02:26:14;93864.03;;;23.43;48.33
11692;BME280;33659;42.672;23.354;2022-09-16T02:28:46;93865.31;;;23.38;48.73
11692;BME280;33659;42.672;23.354;2022-09-16T02:31:16;93875.13;;;23.41;48.63
11692;BME280;33659;42.672;23.354;2022-09-16T02:33:51;93895.25;;;23.42;48.99
11692;BME280;33659;42.672;23.354;2022-09-16T02:36:20;93905.19;;;23.42;48.84
11692;BME280;33659;42.672;23.354;2022-09-16T02:38:50;93884.19;;;23.44;48.64
11692;BME280;33659;42.672;23.354;2022-09-16T02:41:18;93909.84;;;23.38;48.40
11692;BME280;33659;42.672;23.354;2022-09-16T02:43:45;93904.06;;;23.27;48.71
11692;BME280;33659;42.672;23.354;2022-09-16T02:46:18;93892.91;;;23.15;48.67
11692;BME280;33659;42.672;23.354;2022-09-16T02:48:55;93891.66;;;23.20;49.05
11692;BME280;33659;42.672;23.354;2022-09-16T02:51:30;93899.72;;;23.16;49.01
11692;BME280;33659;42.672;23.354;2022-09-16T02:54:04;93900.09;;;23.02;49.42
11692;BME280;33659;42.672;23.354;2022-09-16T02:56:35;93894.94;;;22.95;49.47
11692;BME280;33659;42.672;23.354;2022-09-16T02:59:05;93896.75;;;22.82;49.71
11692;BME280;33659;42.672;23.354;2022-09-16T03:01:40;93905.72;;;22.55;49.81
11692;BME280;33659;42.672;23.354;2022-09-16T03:04:10;93907.28;;;22.53;50.31
11692;BME280;33659;42.672;23.354;2022-09-16T03:06:37;93912.63;;;22.53;50.84
11692;BME280;33659;42.672;23.354;2022-09-16T03:09:06;93913.56;;;22.62;50.67
11692;BME280;33659;42.672;23.354;2022-09-16T03:14:39;93921.03;;;22.67;49.90
11692;BME280;33659;42.672;23.354;2022-09-16T03:17:18;93927.59;;;22.63;49.64
11692;BME280;33659;42.672;23.354;2022-09-16T03:19:56;93932.50;;;22.64;50.55
11692;BME280;33659;42.672;23.354;2022-09-16T03:22:32;93930.53;;;22.68;50.54
11692;BME280;33659;42.672;23.354;2022-09-16T03:25:06;93935.69;;;22.76;49.25
11692;BME280;33659;42.672;23.354;2022-09-16T03:27:41;93930.16;;;22.86;49.01
11692;BME280;33659;42.672;23.354;2022-09-16T03:30:10;93939.28;;;23.02;49.36
11692;BME280;33659;42.672;23.354;2022-09-16T03:32:41;93929.13;;;23.13;49.20
11692;BME280;33659;42.672;23.354;2022-09-16T03:35:13;93913.63;;;23.24;49.21
11692;BME280;33659;42.672;23.354;2022-09-16T03:37:44;93914.22;;;23.32;49.06
11692;BME280;33659;42.672;23.354;2022-09-16T03:40:13;93914.84;;;23.36;49.13
11692;BME280;33659;42.672;23.354;2022-09-16T03:42:42;93914.25;;;23.44;48.63
11692;BME280;33659;42.672;23.354;2022-09-16T03:45:12;93909.16;;;23.50;48.96
11692;BME280;33659;42.672;23.354;2022-09-16T03:47:40;93911.31;;;23.55;49.01
11692;BME280;33659;42.672;23.354;2022-09-16T03:50:07;93896.56;;;23.50;49.20
11692;BME280;33659;42.672;23.354;2022-09-16T03:52:36;93897.00;;;23.49;49.33
11692;BME280;33659;42.672;23.354;2022-09-16T03:55:04;93899.34;;;23.47;49.39
11692;BME280;33659;42.672;23.354;2022-09-16T03:57:31;93904.25;;;23.48;49.86
11692;BME280;33659;42.672;23.354;2022-09-16T03:59:58;93899.66;;;23.49;50.07
11692;BME280;33659;42.672;23.354;2022-09-16T04:02:25;93902.31;;;23.49;50.28
11692;BME280;33659;42.672;23.354;2022-09-16T04:04:51;93910.31;;;23.49;49.75
11692;BME280;33659;42.672;23.354;2022-09-16T04:07:18;93921.84;;;23.46;50.05
11692;BME280;33659;42.672;23.354;2022-09-16T04:09:46;93929.47;;;23.44;49.66
11692;BME280;33659;42.672;23.354;2022-09-16T04:12:13;93926.19;;;23.40;49.11
11692;BME280;33659;42.672;23.354;2022-09-16T04:14:40;93930.19;;;23.32;49.04
11692;BME280;33659;42.672;23.354;2022-09-16T04:17:06;93932.88;;;23.32;49.39
11692;BME280;33659;42.672;23.354;2022-09-16T04:19:33;93940.38;;;23.20;49.76
11692;BME280;33659;42.672;23.354;2022-09-16T04:22:00;93949.44;;;22.90;51.30
11692;BME280;33659;42.672;23.354;2022-09-16T04:24:26;93954.47;;;22.68;51.62
11692;BME280;33659;42.672;23.354;2022-09-16T04:26:55;93970.63;;;22.61;52.26
11692;BME280;33659;42.672;23.354;2022-09-16T04:29:21;93967.19;;;22.61;51.80
11692;BME280;33659;42.672;23.354;2022-09-16T04:31:48;93962.13;;;22.66;51.30
11692;BME280;33659;42.672;23.354;2022-09-16T04:34:15;93953.47;;;22.79;51.50
11692;BME280;33659;42.672;23.354;2022-09-16T04:36:42;93958.59;;;22.89;50.80
11692;BME280;33659;42.672;23.354;2022-09-16T04:39:08;93953.59;;;22.91;49.02
11692;BME280;33659;42.672;23.354;2022-09-16T04:41:37;93942.38;;;23.00;49.43
11692;BME280;33659;42.672;23.354;2022-09-16T04:44:05;93954.84;;;23.03;49.78
11692;BME280;33659;42.672;23.354;2022-09-16T04:46:32;93948.69;;;23.06;48.86
11692;BME280;33659;42.672;23.354;2022-09-16T04:48:59;93951.50;;;23.15;48.74
11692;BME280;33659;42.672;23.354;2022-09-16T04:51:26;93950.84;;;23.28;48.11
11692;BME280;33659;42.672;23.354;2022-09-16T04:53:55;93968.41;;;23.25;48.59
11692;BME280;33659;42.672;23.354;2022-09-16T04:56:24;93958.44;;;23.13;48.25
11692;BME280;33659;42.672;23.354;2022-09-16T04:58:52;93955.53;;;23.07;48.04
11692;BME280;33659;42.672;23.354;2022-09-16T05:01:22;93956.09;;;22.98;48.58
11692;BME280;33659;42.672;23.354;2022-09-16T05:03:51;93956.44;;;23.01;48.53
11692;BME280;33659;42.672;23.354;2022-09-16T05:06:19;93945.44;;;22.98;48.62
11692;BME280;33659;42.672;23.354;2022-09-16T05:08:47;93947.34;;;22.98;48.22
11692;BME280;33659;42.672;23.354;2022-09-16T05:11:15;93943.53;;;23.15;48.11
11692;BME280;33659;42.672;23.354;2022-09-16T05:13:42;93949.50;;;23.36;47.50
11692;BME280;33659;42.672;23.354;2022-09-16T05:16:10;93950.31;;;23.65;47.00
11692;BME280;33659;42.672;23.354;2022-09-16T05:18:40;93946.63;;;23.88;46.65
11692;BME280;33659;42.672;23.354;2022-09-16T05:21:09;93950.47;;;23.87;48.51
11692;BME280;33659;42.672;23.354;2022-09-16T05:23:36;93939.91;;;23.84;47.70
11692;BME280;33659;42.672;23.354;2022-09-16T05:26:06;93931.03;;;23.74;47.71
11692;BME280;33659;42.672;23.354;2022-09-16T05:28:34;93924.81;;;23.64;48.00
11692;BME280;33659;42.672;23.354;2022-09-16T05:31:08;93932.06;;;23.64;48.74
11692;BME280;33659;42.672;23.354;2022-09-16T05:33:35;93937.44;;;23.60;47.86
11692;BME280;33659;42.672;23.354;2022-09-16T05:36:05;93935.53;;;23.61;47.34
11692;BME280;33659;42.672;23.354;2022-09-16T05:38:32;93935.22;;;23.59;47.84
11692;BME280;33659;42.672;23.354;2022-09-16T05:40:59;93929.31;;;23.51;48.24
11692;BME280;33659;42.672;23.354;2022-09-16T05:43:26;93924.75;;;23.51;47.84
11692;BME280;33659;42.672;23.354;2022-09-16T05:45:54;93926.22;;;23.52;48.43
11692;BME280;33659;42.672;23.354;2022-09-16T05:48:21;93926.13;;;23.56;48.90
11692;BME280;33659;42.672;23.354;2022-09-16T05:50:52;93922.56;;;23.63;48.74
11692;BME280;33659;42.672;23.354;2022-09-16T05:53:20;93925.81;;;23.70;49.69
11692;BME280;33659;42.672;23.354;2022-09-16T05:55:55;93917.44;;;23.68;48.11
11692;BME280;33659;42.672;23.354;2022-09-16T05:58:22;93933.06;;;23.83;49.00
11692;BME280;33659;42.672;23.354;2022-09-16T06:00:49;93934.16;;;23.85;47.49
11692;BME280;33659;42.672;23.354;2022-09-16T06:03:16;93929.81;;;23.91;47.18
11692;BME280;33659;42.672;23.354;2022-09-16T06:05:43;93919.44;;;23.93;47.83
11692;BME280;33659;42.672;23.354;2022-09-16T06:08:09;93927.44;;;23.93;47.27
11692;BME280;33659;42.672;23.354;2022-09-16T06:10:38;93930.34;;;23.99;46.39
11692;BME280;33659;42.672;23.354;2022-09-16T06:13:04;93931.75;;;24.03;46.75
11692;BME280;33659;42.672;23.354;2022-09-16T06:15:31;93925.56;;;24.07;47.39
11692;BME280;33659;42.672;23.354;2022-09-16T06:17:58;93932.38;;;24.08;48.07
11692;BME280;33659;42.672;23.354;2022-09-16T06:20:25;93923.09;;;24.12;46.82
11692;BME280;33659;42.672;23.354;2022-09-16T06:22:51;93925.25;;;24.17;46.63
11692;BME280;33659;42.672;23.354;2022-09-16T06:25:18;93911.50;;;24.19;47.01
11692;BME280;33659;42.672;23.354;2022-09-16T06:27:46;93916.41;;;24.33;46.74
11692;BME280;33659;42.672;23.354;2022-09-16T06:30:13;93915.47;;;24.40;46.33
11692;BME280;33659;42.672;23.354;2022-09-16T06:32:40;93918.59;;;24.51;44.89
11692;BME280;33659;42.672;23.354;2022-09-16T06:35:06;93922.88;;;24.61;44.61
11692;BME280;33659;42.672;23.354;2022-09-16T06:37:34;93917.31;;;24.68;44.63
11692;BME280;33659;42.672;23.354;2022-09-16T06:40:01;93927.97;;;24.68;44.06
11692;BME280;33659;42.672;23.354;2022-09-16T06:42:28;93926.50;;;24.80;43.95
11692;BME280;33659;42.672;23.354;2022-09-16T06:44:56;93924.34;;;24.88;43.51
11692;BME280;33659;42.672;23.354;2022-09-16T06:47:23;93929.31;;;24.98;43.42
11692;BME280;33659;42.672;23.354;2022-09-16T06:49:50;93921.31;;;25.11;43.35
11692;BME280;33659;42.672;23.354;2022-09-16T06:52:16;93926.63;;;25.24;43.24
11692;BME280;33659;42.672;23.354;2022-09-16T06:54:43;93933.34;;;25.28;42.88
11692;BME280;33659;42.672;23.354;2022-09-16T06:57:11;93917.63;;;25.30;42.57
11692;BME280;33659;42.672;23.354;2022-09-16T06:59:38;93918.31;;;25.44;42.68
11692;BME280;33659;42.672;23.354;2022-09-16T07:02:08;93927.44;;;25.46;43.25
11692;BME280;33659;42.672;23.354;2022-09-16T07:04:35;93920.47;;;25.49;42.81
11692;BME280;33659;42.672;23.354;2022-09-16T07:07:01;93934.31;;;25.56;42.78
11692;BME280;33659;42.672;23.354;2022-09-16T07:09:28;93933.28;;;25.54;42.45
11692;BME280;33659;42.672;23.354;2022-09-16T07:11:56;93926.50;;;25.62;42.21
11692;BME280;33659;42.672;23.354;2022-09-16T07:14:23;93928.13;;;25.59;42.89
11692;BME280;33659;42.672;23.354;2022-09-16T07:16:50;93938.19;;;25.55;43.11
11692;BME280;33659;42.672;23.354;2022-09-16T07:19:19;93929.19;;;25.62;43.06
11692;BME280;33659;42.672;23.354;2022-09-16T07:21:46;93927.44;;;25.68;42.23
11692;BME280;33659;42.672;23.354;2022-09-16T07:24:13;93932.69;;;25.72;42.75
11692;BME280;33659;42.672;23.354;2022-09-16T07:26:41;93926.38;;;25.78;42.75
11692;BME280;33659;42.672;23.354;2022-09-16T07:29:10;93922.41;;;25.70;42.81
11692;BME280;33659;42.672;23.354;2022-09-16T07:31:37;93910.31;;;25.78;42.56
11692;BME280;33659;42.672;23.354;2022-09-16T07:34:05;93921.69;;;25.91;41.93
11692;BME280;33659;42.672;23.354;2022-09-16T07:36:35;93927.34;;;25.93;42.20
11692;BME280;33659;42.672;23.354;2022-09-16T07:39:03;93921.13;;;25.97;42.56
11692;BME280;33659;42.672;23.354;2022-09-16T07:41:32;93919.50;;;25.99;42.58
11692;BME280;33659;42.672;23.354;2022-09-16T07:44:00;93903.44;;;25.99;42.68
11692;BME280;33659;42.672;23.354;2022-09-16T07:46:28;93889.06;;;26.06;42.81
11692;BME280;33659;42.672;23.354;2022-09-16T07:48:57;93896.97;;;26.09;42.66
11692;BME280;33659;42.672;23.354;2022-09-16T07:51:25;93890.63;;;26.16;42.52
11692;BME280;33659;42.672;23.354;2022-09-16T07:53:55;93885.84;;;26.20;41.92
11692;BME280;33659;42.672;23.354;2022-09-16T07:56:25;93892.69;;;26.21;41.89
11692;BME280;33659;42.672;23.354;2022-09-16T07:58:53;93895.69;;;26.23;41.69
11692;BME280;33659;42.672;23.354;2022-09-16T08:01:21;93896.91;;;26.31;41.56
11692;BME280;33659;42.672;23.354;2022-09-16T08:03:48;93883.59;;;26.40;41.54
11692;BME280;33659;42.672;23.354;2022-09-16T08:06:17;93893.44;;;26.43;41.36
11692;BME280;33659;42.672;23.354;2022-09-16T08:08:44;93883.34;;;26.48;41.25
11692;BME280;33659;42.672;23.354;2022-09-16T08:11:13;93882.31;;;26.54;41.10
11692;BME280;33659;42.672;23.354;2022-09-16T08:13:41;93884.84;;;26.58;41.43
11692;BME280;33659;42.672;23.354;2022-09-16T08:16:10;93877.88;;;26.60;41.21
11692;BME280;33659;42.672;23.354;2022-09-16T08:18:38;93871.19;;;26.65;41.19
11692;BME280;33659;42.672;23.354;2022-09-16T08:21:05;93877.59;;;26.77;41.36
11692;BME280;33659;42.672;23.354;2022-09-16T08:23:32;93873.59;;;26.81;40.65
11692;BME280;33659;42.672;23.354;2022-09-16T08:25:59;93861.56;;;26.95;40.79
11692;BME280;33659;42.672;23.354;2022-09-16T08:28:27;93867.56;;;27.08;40.26
11692;BME280;33659;42.672;23.354;2022-09-16T08:30:57;93868.63;;;27.20;40.04
11692;BME280;33659;42.672;23.354;2022-09-16T08:33:24;93871.47;;;27.25;39.81
11692;BME280;33659;42.672;23.354;2022-09-16T08:35:57;93858.63;;;27.30;39.98
11692;BME280;33659;42.672;23.354;2022-09-16T08:38:25;93863.41;;;27.35;39.93
11692;BME280;33659;42.672;23.354;2022-09-16T08:40:54;93864.75;;;27.39;39.82
11692;BME280;33659;42.672;23.354;2022-09-16T08:43:30;93857.28;;;27.43;39.19
11692;BME280;33659;42.672;23.354;2022-09-16T08:46:03;93849.25;;;27.43;39.56
11692;BME280;33659;42.672;23.354;2022-09-16T08:48:41;93853.44;;;27.44;39.14
11692;BME280;33659;42.672;23.354;2022-09-16T08:51:15;93832.56;;;27.39;39.07
11692;BME280;33659;42.672;23.354;2022-09-16T08:53:47;93846.41;;;27.47;39.27
11692;BME280;33659;42.672;23.354;2022-09-16T08:56:18;93841.19;;;27.52;39.03
11692;BME280;33659;42.672;23.354;2022-09-16T08:58:49;93837.91;;;27.58;38.91
11692;BME280;33659;42.672;23.354;2022-09-16T09:01:22;93843.56;;;27.60;39.50
11692;BME280;33659;42.672;23.354;2022-09-16T09:03:51;93849.97;;;27.62;40.78
11692;BME280;33659;42.672;23.354;2022-09-16T09:06:30;93846.53;;;27.62;40.35
11692;BME280;33659;42.672;23.354;2022-09-16T09:09:19;93839.13;;;27.57;41.60
11692;BME280;33659;42.672;23.354;2022-09-16T09:11:53;93844.34;;;27.51;41.67
11692;BME280;33659;42.672;23.354;2022-09-16T09:14:31;93848.66;;;27.48;42.02
11692;BME280;33659;42.672;23.354;2022-09-16T09:17:06;93853.44;;;27.44;40.68
11692;BME280;33659;42.672;23.354;2022-09-16T09:19:53;93859.84;;;27.38;44.40
11692;BME280;33659;42.672;23.354;2022-09-16T09:22:32;93859.09;;;27.37;44.34
11692;BME280;33659;42.672;23.354;2022-09-16T09:25:21;93862.06;;;27.39;44.36
11692;BME280;33659;42.672;23.354;2022-09-16T09:27:56;93853.84;;;27.43;43.77
11692;BME280;33659;42.672;23.354;2022-09-16T09:30:27;93845.22;;;27.30;43.52
11692;BME280;33659;42.672;23.354;2022-09-16T09:33:05;93849.56;;;27.27;42.73
11692;BME280;33659;42.672;23.354;2022-09-16T09:35:48;93847.16;;;27.29;42.46
11692;BME280;33659;42.672;23.354;2022-09-16T09:38:35;93849.38;;;27.31;42.11
11692;BME280;33659;42.672;23.354;2022-09-16T09:41:10;93846.13;;;27.17;43.02
11692;BME280;33659;42.672;23.354;2022-09-16T09:43:43;93836.84;;;26.91;42.62
11692;BME280;33659;42.672;23.354;2022-09-16T09:46:16;93852.75;;;26.85;43.13
11692;BME280;33659;42.672;23.354;2022-09-16T09:48:49;93845.91;;;26.75;42.91
11692;BME280;33659;42.672;23.354;2022-09-16T09:51:21;93863.19;;;26.83;42.57
11692;BME280;33659;42.672;23.354;2022-09-16T09:53:52;93859.31;;;26.75;42.27
11692;BME280;33659;42.672;23.354;2022-09-16T09:56:24;93857.38;;;26.66;42.31
11692;BME280;33659;42.672;23.354;2022-09-16T09:59:00;93859.59;;;26.68;42.97
11692;BME280;33659;42.672;23.354;2022-09-16T10:01:30;93881.88;;;26.65;43.28
11692;BME280;33659;42.672;23.354;2022-09-16T10:03:57;93876.97;;;26.54;43.27
11692;BME280;33659;42.672;23.354;2022-09-16T10:06:29;93886.03;;;26.57;43.41
11692;BME280;33659;42.672;23.354;2022-09-16T10:08:56;93893.91;;;26.51;44.04
11692;BME280;33659;42.672;23.354;2022-09-16T10:11:26;93904.38;;;26.36;44.48
11692;BME280;33659;42.672;23.354;2022-09-16T10:13:54;93912.78;;;26.16;45.45
11692;BME280;33659;42.672;23.354;2022-09-16T10:16:25;93918.47;;;25.97;46.60
11692;BME280;33659;42.672;23.354;2022-09-16T10:18:58;93932.34;;;25.70;46.04
11692;BME280;33659;42.672;23.354;2022-09-16T10:21:36;93972.66;;;25.53;47.82
11692;BME280;33659;42.672;23.354;2022-09-16T10:24:04;93989.78;;;25.30;48.22
11692;BME280;33659;42.672;23.354;2022-09-16T10:26:38;94035.78;;;25.00;49.50
11692;BME280;33659;42.672;23.354;2022-09-16T10:29:15;94031.06;;;24.78;52.46
11692;BME280;33659;42.672;23.354;2022-09-16T10:31:44;94080.84;;;24.14;54.94
11692;BME280;33659;42.672;23.354;2022-09-16T10:34:17;94096.94;;;23.65;57.22
11692;BME280;33659;42.672;23.354;2022-09-16T10:36:44;94122.13;;;23.28;59.07
11692;BME280;33659;42.672;23.354;2022-09-16T10:39:21;94133.41;;;23.16;59.43
11692;BME280;33659;42.672;23.354;2022-09-16T10:41:49;94099.16;;;22.98;62.15
11692;BME280;33659;42.672;23.354;2022-09-16T10:44:19;94116.56;;;22.83;61.92
11692;BME280;33659;42.672;23.354;2022-09-16T10:46:52;94067.66;;;22.37;62.38
11692;BME280;33659;42.672;23.354;2022-09-16T10:49:24;94089.81;;;22.10;65.08
11692;BME280;33659;42.672;23.354;2022-09-16T10:51:52;94100.72;;;21.93;66.00
11692;BME280;33659;42.672;23.354;2022-09-16T10:54:24;94099.75;;;21.83;67.64
11692;BME280;33659;42.672;23.354;2022-09-16T10:56:53;94108.09;;;21.85;67.46
11692;BME280;33659;42.672;23.354;2022-09-16T10:59:19;94074.31;;;22.05;66.89
11692;BME280;33659;42.672;23.354;2022-09-16T11:01:51;94059.28;;;22.19;67.29
11692;BME280;33659;42.672;23.354;2022-09-16T11:04:36;94026.78;;;22.27;66.30
11692;BME280;33659;42.672;23.354;2022-09-16T11:07:10;94005.25;;;22.22;65.53
11692;BME280;33659;42.672;23.354;2022-09-16T11:09:47;94024.34;;;22.36;64.13
11692;BME280;33659;42.672;23.354;2022-09-16T11:12:41;93994.50;;;22.45;64.88
11692;BME280;33659;42.672;23.354;2022-09-16T11:15:17;93978.75;;;22.54;63.14
11692;BME280;33659;42.672;23.354;2022-09-16T11:17:58;93943.66;;;22.59;61.18
11692;BME280;33659;42.672;23.354;2022-09-16T11:20:45;93945.88;;;23.13;61.64
11692;BME280;33659;42.672;23.354;2022-09-16T11:23:25;93948.81;;;23.64;60.50
11692;BME280;33659;42.672;23.354;2022-09-16T11:25:59;93942.94;;;23.98;57.52
11692;BME280;33659;42.672;23.354;2022-09-16T11:28:53;93915.66;;;24.32;55.80
11692;BME280;33659;42.672;23.354;2022-09-16T11:31:33;93913.47;;;24.44;53.87
11692;BME280;33659;42.672;23.354;2022-09-16T11:34:06;93901.50;;;24.48;53.46
11692;BME280;33659;42.672;23.354;2022-09-16T11:36:54;93882.25;;;24.53;52.47
11692;BME280;33659;42.672;23.354;2022-09-16T11:39:38;93876.91;;;24.79;51.19
11692;BME280;33659;42.672;23.354;2022-09-16T11:42:17;93888.75;;;25.38;49.47
11692;BME280;33659;42.672;23.354;2022-09-16T11:44:48;93889.78;;;25.97;48.27
11692;BME280;33659;42.672;23.354;2022-09-16T11:47:47;93891.53;;;26.22;44.00
11692;BME280;33659;42.672;23.354;2022-09-16T11:50:25;93890.78;;;26.53;44.63
11692;BME280;33659;42.672;23.354;2022-09-16T11:53:21;93881.31;;;26.61;44.46
11692;BME280;33659;42.672;23.354;2022-09-16T11:55:55;93884.31;;;26.81;44.53
11692;BME280;33659;42.672;23.354;2022-09-16T11:58:29;93880.78;;;26.93;44.52
11692;BME280;33659;42.672;23.354;2022-09-16T12:01:02;93869.81;;;27.19;47.20
11692;BME280;33659;42.672;23.354;2022-09-16T12:03:39;93855.94;;;27.57;48.54
11692;BME280;33659;42.672;23.354;2022-09-16T12:06:10;93857.88;;;27.66;44.61
11692;BME280;33659;42.672;23.354;2022-09-16T12:08:53;93838.97;;;27.42;43.15
11692;BME280;33659;42.672;23.354;2022-09-16T12:11:23;93843.75;;;27.38;43.02
11692;BME280;33659;42.672;23.354;2022-09-16T12:14:02;93850.00;;;27.25;42.34
11692;BME280;33659;42.672;23.354;2022-09-16T12:16:35;93859.63;;;27.05;43.75
11692;BME280;33659;42.672;23.354;2022-09-16T12:19:09;93872.75;;;27.03;43.30
11692;BME280;33659;42.672;23.354;2022-09-16T12:21:39;93870.03;;;26.75;44.63
11692;BME280;33659;42.672;23.354;2022-09-16T12:24:18;93866.88;;;26.67;48.73
11692;BME280;33659;42.672;23.354;2022-09-16T12:26:50;93874.94;;;26.36;52.35
11692;BME280;33659;42.672;23.354;2022-09-16T12:29:20;93877.97;;;26.16;53.87
11692;BME280;33659;42.672;23.354;2022-09-16T12:31:52;93888.31;;;26.05;54.63
11692;BME280;33659;42.672;23.354;2022-09-16T12:34:24;93891.38;;;25.95;55.73
11692;BME280;33659;42.672;23.354;2022-09-16T12:36:58;93897.13;;;25.84;56.23
11692;BME280;33659;42.672;23.354;2022-09-16T12:39:27;93892.66;;;25.68;56.92
11692;BME280;33659;42.672;23.354;2022-09-16T12:42:23;93900.34;;;25.57;56.81
11692;BME280;33659;42.672;23.354;2022-09-16T12:45:14;93903.66;;;25.48;57.04
11692;BME280;33659;42.672;23.354;2022-09-16T12:47:58;93909.47;;;25.47;56.66
11692;BME280;33659;42.672;23.354;2022-09-16T12:50:44;93926.03;;;25.42;56.75
11692;BME280;33659;42.672;23.354;2022-09-16T12:56:24;93927.31;;;25.15;57.26
11692;BME280;33659;42.672;23.354;2022-09-16T12:59:06;93926.84;;;25.04;57.22
11692;BME280;33659;42.672;23.354;2022-09-16T13:01:42;93953.38;;;25.11;57.49
11692;BME280;33659;42.672;23.354;2022-09-16T13:04:13;93967.81;;;25.01;57.61
11692;BME280;33659;42.672;23.354;2022-09-16T13:06:45;93975.19;;;24.84;57.61
11692;BME280;33659;42.672;23.354;2022-09-16T13:09:19;93978.38;;;24.79;57.88
11692;BME280;33659;42.672;23.354;2022-09-16T13:11:54;93986.53;;;24.75;58.35
11692;BME280;33659;42.672;23.354;2022-09-16T13:14:23;93987.03;;;24.70;59.03
11692;BME280;33659;42.672;23.354;2022-09-16T13:16:54;94005.72;;;24.57;59.60
11692;BME280;33659;42.672;23.354;2022-09-16T13:19:38;94008.16;;;24.52;60.40
11692;BME280;33659;42.672;23.354;2022-09-16T13:22:23;94014.81;;;24.47;61.05